sensor_id;sensor_type;location;lat;lon;timestamp;temperature;humidity
14749;DHT22;7466;53.574;9.976;2022-11-20T00:00:40;1.80;99.90
14749;DHT22;7466;53.574;9.976;2022-11-20T00:03:06;1.80;99.90
14749;DHT22;7466;53.574;9.976;2022-11-20T00:05:34;1.80;99.90
14749;DHT22;7466;53.574;9.976;2022-11-20T00:08:01;1.80;99.90
14749;DHT22;7466;53.574;9.976;2022-11-20T00:10:28;1.80;99.90
14749;DHT22;7466;53.574;9.976;2022-11-20T00:12:55;1.80;99.90
14749;DHT22;7466;53.574;9.976;2022-11-20T00:15:21;1.80;99.90
14749;DHT22;7466;53.574;9.976;2022-11-20T00:17:48;1.90;99.90
14749;DHT22;7466;53.574;9.976;2022-11-20T00:20:15;1.90;99.90
14749;DHT22;7466;53.574;9.976;2022-11-20T00:22:43;1.90;99.90
14749;DHT22;7466;53.574;9.976;2022-11-20T00:25:10;1.80;99.90
14749;DHT22;7466;53.574;9.976;2022-11-20T00:27:37;1.80;99.90
14749;DHT22;7466;53.574;9.976;2022-11-20T00:30:05;1.80;99.90
14749;DHT22;7466;53.574;9.976;2022-11-20T00:32:32;1.80;99.90
14749;DHT22;7466;53.574;9.976;2022-11-20T00:34:58;1.90;99.90
14749;DHT22;7466;53.574;9.976;2022-11-20T00:37:25;1.90;99.90
14749;DHT22;7466;53.574;9.976;2022-11-20T00:39:57;1.90;99.90
14749;DHT22;7466;53.574;9.976;2022-11-20T00:42:25;1.80;99.90
14749;DHT22;7466;53.574;9.976;2022-11-20T00:44:52;1.90;99.90
14749;DHT22;7466;53.574;9.976;2022-11-20T00:47:19;1.80;99.90
14749;DHT22;7466;53.574;9.976;2022-11-20T00:49:46;1.80;99.90
14749;DHT22;7466;53.574;9.976;2022-11-20T00:52:13;1.80;99.90
14749;DHT22;7466;53.574;9.976;2022-11-20T00:54:40;1.80;99.90
14749;DHT22;7466;53.574;9.976;2022-11-20T00:57:08;1.80;99.90
14749;DHT22;7466;53.574;9.976;2022-11-20T00:59:35;1.90;99.90
14749;DHT22;7466;53.574;9.976;2022-11-20T01:02:02;1.80;99.90
14749;DHT22;7466;53.574;9.976;2022-11-20T01:04:28;1.80;99.90
14749;DHT22;7466;53.574;9.976;2022-11-20T01:06:55;1.80;99.90
14749;DHT22;7466;53.574;9.976;2022-11-20T01:09:22;1.80;99.90
14749;DHT22;7466;53.574;9.976;2022-11-20T01:11:52;1.80;99.90
14749;DHT22;7466;53.574;9.976;2022-11-20T01:14:20;1.80;99.90
14749;DHT22;7466;53.574;9.976;2022-11-20T01:16:49;1.80;99.90
14749;DHT22;7466;53.574;9.976;2022-11-20T01:19:19;1.80;99.90
14749;DHT22;7466;53.574;9.976;2022-11-20T01:21:49;1.80;99.90
14749;DHT22;7466;53.574;9.976;2022-11-20T01:24:19;1.80;99.90
14749;DHT22;7466;53.574;9.976;2022-11-20T01:26:48;1.80;99.90
14749;DHT22;7466;53.574;9.976;2022-11-20T01:29:23;1.80;99.90
14749;DHT22;7466;53.574;9.976;2022-11-20T01:31:50;1.80;99.90
14749;DHT22;7466;53.574;9.976;2022-11-20T01:34:19;1.80;99.90
14749;DHT22;7466;53.574;9.976;2022-11-20T01:36:51;1.80;99.90
14749;DHT22;7466;53.574;9.976;2022-11-20T01:39:19;1.80;99.90
14749;DHT22;7466;53.574;9.976;2022-11-20T01:41:48;1.80;99.90
14749;DHT22;7466;53.574;9.976;2022-11-20T01:44:57;1.80;99.90
14749;DHT22;7466;53.574;9.976;2022-11-20T01:47:29;1.70;99.90
14749;DHT22;7466;53.574;9.976;2022-11-20T01:50:00;1.70;99.90
14749;DHT22;7466;53.574;9.976;2022-11-20T01:52:30;1.70;99.90
14749;DHT22;7466;53.574;9.976;2022-11-20T01:55:03;1.70;99.90
14749;DHT22;7466;53.574;9.976;2022-11-20T01:57:34;1.60;99.90
14749;DHT22;7466;53.574;9.976;2022-11-20T02:00:07;1.60;99.90
14749;DHT22;7466;53.574;9.976;2022-11-20T02:02:34;1.60;99.90
14749;DHT22;7466;53.574;9.976;2022-11-20T02:05:08;1.60;99.90
14749;DHT22;7466;53.574;9.976;2022-11-20T02:07:38;1.60;99.90
14749;DHT22;7466;53.574;9.976;2022-11-20T02:10:06;1.50;99.90
14749;DHT22;7466;53.574;9.976;2022-11-20T02:12:33;1.60;99.90
14749;DHT22;7466;53.574;9.976;2022-11-20T02:15:18;1.60;99.90
14749;DHT22;7466;53.574;9.976;2022-11-20T02:17:45;1.60;99.90
14749;DHT22;7466;53.574;9.976;2022-11-20T02:20:12;1.60;99.90
14749;DHT22;7466;53.574;9.976;2022-11-20T02:22:46;1.60;99.90
14749;DHT22;7466;53.574;9.976;2022-11-20T02:25:16;1.50;99.90
14749;DHT22;7466;53.574;9.976;2022-11-20T02:27:44;1.60;99.90
14749;DHT22;7466;53.574;9.976;2022-11-20T02:30:11;1.60;99.90
14749;DHT22;7466;53.574;9.976;2022-11-20T02:32:39;1.60;99.90
14749;DHT22;7466;53.574;9.976;2022-11-20T02:35:08;1.60;99.90
14749;DHT22;7466;53.574;9.976;2022-11-20T02:37:38;1.60;99.90
14749;DHT22;7466;53.574;9.976;2022-11-20T02:40:07;1.60;99.90
14749;DHT22;7466;53.574;9.976;2022-11-20T02:42:36;1.70;99.90
14749;DHT22;7466;53.574;9.976;2022-11-20T02:45:03;1.70;99.90
14749;DHT22;7466;53.574;9.976;2022-11-20T02:47:29;1.60;99.90
14749;DHT22;7466;53.574;9.976;2022-11-20T02:49:56;1.60;99.90
14749;DHT22;7466;53.574;9.976;2022-11-20T02:52:24;1.60;99.90
14749;DHT22;7466;53.574;9.976;2022-11-20T02:54:51;1.60;99.90
14749;DHT22;7466;53.574;9.976;2022-11-20T02:57:18;1.60;99.90
14749;DHT22;7466;53.574;9.976;2022-11-20T02:59:49;1.60;99.90
14749;DHT22;7466;53.574;9.976;2022-11-20T03:02:16;1.60;99.90
14749;DHT22;7466;53.574;9.976;2022-11-20T03:04:42;1.60;99.90
14749;DHT22;7466;53.574;9.976;2022-11-20T03:07:09;1.60;99.90
14749;DHT22;7466;53.574;9.976;2022-11-20T03:09:36;1.60;99.90
14749;DHT22;7466;53.574;9.976;2022-11-20T03:12:03;1.60;99.90
14749;DHT22;7466;53.574;9.976;2022-11-20T03:14:30;1.60;99.90
14749;DHT22;7466;53.574;9.976;2022-11-20T03:16:58;1.60;99.90
14749;DHT22;7466;53.574;9.976;2022-11-20T03:19:25;1.50;99.90
14749;DHT22;7466;53.574;9.976;2022-11-20T03:21:52;1.60;99.90
14749;DHT22;7466;53.574;9.976;2022-11-20T03:24:20;1.60;99.90
14749;DHT22;7466;53.574;9.976;2022-11-20T03:26:46;1.60;99.90
14749;DHT22;7466;53.574;9.976;2022-11-20T03:29:20;1.60;99.90
14749;DHT22;7466;53.574;9.976;2022-11-20T03:31:47;1.60;99.90
14749;DHT22;7466;53.574;9.976;2022-11-20T03:34:16;1.60;99.90
14749;DHT22;7466;53.574;9.976;2022-11-20T03:36:43;1.60;99.90
14749;DHT22;7466;53.574;9.976;2022-11-20T03:39:10;1.60;99.90
14749;DHT22;7466;53.574;9.976;2022-11-20T03:41:38;1.60;99.90
14749;DHT22;7466;53.574;9.976;2022-11-20T03:44:08;1.60;99.90
14749;DHT22;7466;53.574;9.976;2022-11-20T03:46:35;1.60;99.90
14749;DHT22;7466;53.574;9.976;2022-11-20T03:49:02;1.60;99.90
14749;DHT22;7466;53.574;9.976;2022-11-20T03:51:48;1.60;99.90
14749;DHT22;7466;53.574;9.976;2022-11-20T03:54:15;1.60;99.90
14749;DHT22;7466;53.574;9.976;2022-11-20T03:56:42;1.60;99.90
14749;DHT22;7466;53.574;9.976;2022-11-20T03:59:09;1.60;99.90
14749;DHT22;7466;53.574;9.976;2022-11-20T04:01:37;1.60;99.90
14749;DHT22;7466;53.574;9.976;2022-11-20T04:04:04;1.60;99.90
14749;DHT22;7466;53.574;9.976;2022-11-20T04:06:34;1.60;99.90
14749;DHT22;7466;53.574;9.976;2022-11-20T04:09:04;1.60;99.90
14749;DHT22;7466;53.574;9.976;2022-11-20T04:11:36;1.60;99.90
14749;DHT22;7466;53.574;9.976;2022-11-20T04:14:07;1.60;99.90
14749;DHT22;7466;53.574;9.976;2022-11-20T04:16:38;1.60;99.90
14749;DHT22;7466;53.574;9.976;2022-11-20T04:19:12;1.60;99.90
14749;DHT22;7466;53.574;9.976;2022-11-20T04:21:42;1.50;99.90
14749;DHT22;7466;53.574;9.976;2022-11-20T04:24:10;1.60;99.90
14749;DHT22;7466;53.574;9.976;2022-11-20T04:26:39;1.60;99.90
14749;DHT22;7466;53.574;9.976;2022-11-20T04:29:06;1.50;99.90
14749;DHT22;7466;53.574;9.976;2022-11-20T04:31:34;1.50;99.90
14749;DHT22;7466;53.574;9.976;2022-11-20T04:34:02;1.60;99.90
14749;DHT22;7466;53.574;9.976;2022-11-20T04:36:29;1.60;99.90
14749;DHT22;7466;53.574;9.976;2022-11-20T04:38:58;1.50;99.90
14749;DHT22;7466;53.574;9.976;2022-11-20T04:41:28;1.50;99.90
14749;DHT22;7466;53.574;9.976;2022-11-20T04:43:56;1.50;99.90
14749;DHT22;7466;53.574;9.976;2022-11-20T04:46:28;1.50;99.90
14749;DHT22;7466;53.574;9.976;2022-11-20T04:48:56;1.50;99.90
14749;DHT22;7466;53.574;9.976;2022-11-20T04:51:23;1.50;99.90
14749;DHT22;7466;53.574;9.976;2022-11-20T04:53:49;1.50;99.90
14749;DHT22;7466;53.574;9.976;2022-11-20T04:56:16;1.50;99.90
14749;DHT22;7466;53.574;9.976;2022-11-20T04:58:44;1.50;99.90
14749;DHT22;7466;53.574;9.976;2022-11-20T05:01:13;1.50;99.90
14749;DHT22;7466;53.574;9.976;2022-11-20T05:03:41;1.50;99.90
14749;DHT22;7466;53.574;9.976;2022-11-20T05:06:10;1.50;99.90
14749;DHT22;7466;53.574;9.976;2022-11-20T05:08:37;1.50;99.90
14749;DHT22;7466;53.574;9.976;2022-11-20T05:11:08;1.50;99.90
14749;DHT22;7466;53.574;9.976;2022-11-20T05:13:51;1.50;99.90
14749;DHT22;7466;53.574;9.976;2022-11-20T05:16:20;1.50;99.90
14749;DHT22;7466;53.574;9.976;2022-11-20T05:19:04;1.50;99.90
14749;DHT22;7466;53.574;9.976;2022-11-20T05:21:31;1.50;99.90
14749;DHT22;7466;53.574;9.976;2022-11-20T05:23:58;1.40;99.90
14749;DHT22;7466;53.574;9.976;2022-11-20T05:26:31;1.40;99.90
14749;DHT22;7466;53.574;9.976;2022-11-20T05:32:08;1.40;99.90
14749;DHT22;7466;53.574;9.976;2022-11-20T05:34:38;1.30;99.90
14749;DHT22;7466;53.574;9.976;2022-11-20T05:37:05;1.30;99.90
14749;DHT22;7466;53.574;9.976;2022-11-20T05:39:31;1.30;99.90
14749;DHT22;7466;53.574;9.976;2022-11-20T05:42:07;1.30;99.90
14749;DHT22;7466;53.574;9.976;2022-11-20T05:44:51;1.30;99.90
14749;DHT22;7466;53.574;9.976;2022-11-20T05:47:19;1.30;99.90
14749;DHT22;7466;53.574;9.976;2022-11-20T05:49:46;1.30;99.90
14749;DHT22;7466;53.574;9.976;2022-11-20T05:52:13;1.30;99.90
14749;DHT22;7466;53.574;9.976;2022-11-20T05:54:39;1.30;99.90
14749;DHT22;7466;53.574;9.976;2022-11-20T05:57:06;1.30;99.90
14749;DHT22;7466;53.574;9.976;2022-11-20T05:59:33;1.30;99.90
14749;DHT22;7466;53.574;9.976;2022-11-20T06:02:00;1.30;99.90
14749;DHT22;7466;53.574;9.976;2022-11-20T06:04:28;1.30;99.90
14749;DHT22;7466;53.574;9.976;2022-11-20T06:06:55;1.30;99.90
14749;DHT22;7466;53.574;9.976;2022-11-20T06:09:22;1.30;99.90
14749;DHT22;7466;53.574;9.976;2022-11-20T06:11:48;1.30;99.90
14749;DHT22;7466;53.574;9.976;2022-11-20T06:14:15;1.30;99.90
14749;DHT22;7466;53.574;9.976;2022-11-20T06:16:42;1.30;99.90
14749;DHT22;7466;53.574;9.976;2022-11-20T06:19:09;1.30;99.90
14749;DHT22;7466;53.574;9.976;2022-11-20T06:21:37;1.30;99.90
14749;DHT22;7466;53.574;9.976;2022-11-20T06:24:04;1.20;99.90
14749;DHT22;7466;53.574;9.976;2022-11-20T06:26:31;1.30;99.90
14749;DHT22;7466;53.574;9.976;2022-11-20T06:29:04;1.30;99.90
14749;DHT22;7466;53.574;9.976;2022-11-20T06:31:46;1.30;99.90
14749;DHT22;7466;53.574;9.976;2022-11-20T06:34:13;1.30;99.90
14749;DHT22;7466;53.574;9.976;2022-11-20T06:36:41;1.30;99.90
14749;DHT22;7466;53.574;9.976;2022-11-20T06:39:08;1.30;99.90
14749;DHT22;7466;53.574;9.976;2022-11-20T06:41:35;1.30;99.90
14749;DHT22;7466;53.574;9.976;2022-11-20T06:44:04;1.30;99.90
14749;DHT22;7466;53.574;9.976;2022-11-20T06:46:31;1.30;99.90
14749;DHT22;7466;53.574;9.976;2022-11-20T06:48:58;1.30;99.90
14749;DHT22;7466;53.574;9.976;2022-11-20T06:51:24;1.30;99.90
14749;DHT22;7466;53.574;9.976;2022-11-20T06:53:53;1.30;99.90
14749;DHT22;7466;53.574;9.976;2022-11-20T06:56:20;1.30;99.90
14749;DHT22;7466;53.574;9.976;2022-11-20T06:58:46;1.30;99.90
14749;DHT22;7466;53.574;9.976;2022-11-20T07:01:14;1.30;99.90
14749;DHT22;7466;53.574;9.976;2022-11-20T07:03:41;1.30;99.90
14749;DHT22;7466;53.574;9.976;2022-11-20T07:06:22;1.30;99.90
14749;DHT22;7466;53.574;9.976;2022-11-20T07:08:52;1.30;99.90
14749;DHT22;7466;53.574;9.976;2022-11-20T07:11:19;1.30;99.90
14749;DHT22;7466;53.574;9.976;2022-11-20T07:13:46;1.30;99.90
14749;DHT22;7466;53.574;9.976;2022-11-20T07:16:20;1.30;99.90
14749;DHT22;7466;53.574;9.976;2022-11-20T07:18:46;1.30;99.90
14749;DHT22;7466;53.574;9.976;2022-11-20T07:21:14;1.30;99.90
14749;DHT22;7466;53.574;9.976;2022-11-20T07:23:41;1.30;99.90
14749;DHT22;7466;53.574;9.976;2022-11-20T07:26:10;1.40;99.90
14749;DHT22;7466;53.574;9.976;2022-11-20T07:28:37;1.40;99.90
14749;DHT22;7466;53.574;9.976;2022-11-20T07:31:06;1.40;99.90
14749;DHT22;7466;53.574;9.976;2022-11-20T07:33:33;1.40;99.90
14749;DHT22;7466;53.574;9.976;2022-11-20T07:36:00;1.50;99.90
14749;DHT22;7466;53.574;9.976;2022-11-20T07:38:27;1.40;99.90
14749;DHT22;7466;53.574;9.976;2022-11-20T07:40:58;1.40;99.90
14749;DHT22;7466;53.574;9.976;2022-11-20T07:46:28;1.30;99.90
14749;DHT22;7466;53.574;9.976;2022-11-20T07:48:57;1.30;99.90
14749;DHT22;7466;53.574;9.976;2022-11-20T07:51:26;1.30;99.90
14749;DHT22;7466;53.574;9.976;2022-11-20T07:54:00;1.30;99.90
14749;DHT22;7466;53.574;9.976;2022-11-20T07:56:33;1.30;99.90
14749;DHT22;7466;53.574;9.976;2022-11-20T07:59:00;1.30;99.90
14749;DHT22;7466;53.574;9.976;2022-11-20T08:01:28;1.40;99.90
14749;DHT22;7466;53.574;9.976;2022-11-20T08:03:58;1.40;99.90
14749;DHT22;7466;53.574;9.976;2022-11-20T08:06:31;1.50;99.90
14749;DHT22;7466;53.574;9.976;2022-11-20T08:08:58;1.50;99.90
14749;DHT22;7466;53.574;9.976;2022-11-20T08:11:24;1.50;99.90
14749;DHT22;7466;53.574;9.976;2022-11-20T08:14:09;1.50;99.90
14749;DHT22;7466;53.574;9.976;2022-11-20T08:16:40;1.50;99.90
14749;DHT22;7466;53.574;9.976;2022-11-20T08:19:15;1.60;99.90
14749;DHT22;7466;53.574;9.976;2022-11-20T08:22:10;1.60;99.90
14749;DHT22;7466;53.574;9.976;2022-11-20T08:24:46;1.70;99.90
14749;DHT22;7466;53.574;9.976;2022-11-20T08:27:13;1.70;99.90
14749;DHT22;7466;53.574;9.976;2022-11-20T08:29:40;1.70;99.90
14749;DHT22;7466;53.574;9.976;2022-11-20T08:32:23;1.60;99.90
14749;DHT22;7466;53.574;9.976;2022-11-20T08:34:55;1.50;99.90
14749;DHT22;7466;53.574;9.976;2022-11-20T08:37:41;1.60;99.90
14749;DHT22;7466;53.574;9.976;2022-11-20T08:40:18;1.60;99.90
14749;DHT22;7466;53.574;9.976;2022-11-20T08:42:49;1.50;99.90
14749;DHT22;7466;53.574;9.976;2022-11-20T08:45:31;1.60;99.90
14749;DHT22;7466;53.574;9.976;2022-11-20T08:48:12;1.60;99.90
14749;DHT22;7466;53.574;9.976;2022-11-20T08:50:38;1.70;99.90
14749;DHT22;7466;53.574;9.976;2022-11-20T08:53:09;1.70;99.90
14749;DHT22;7466;53.574;9.976;2022-11-20T08:55:36;1.80;99.90
14749;DHT22;7466;53.574;9.976;2022-11-20T08:58:03;1.80;99.90
14749;DHT22;7466;53.574;9.976;2022-11-20T09:00:30;1.80;99.90
14749;DHT22;7466;53.574;9.976;2022-11-20T09:02:57;1.90;99.90
14749;DHT22;7466;53.574;9.976;2022-11-20T09:05:25;1.90;99.90
14749;DHT22;7466;53.574;9.976;2022-11-20T09:07:52;1.90;99.90
14749;DHT22;7466;53.574;9.976;2022-11-20T09:10:18;1.90;99.90
14749;DHT22;7466;53.574;9.976;2022-11-20T09:12:48;2.00;99.90
14749;DHT22;7466;53.574;9.976;2022-11-20T09:15:22;2.10;99.90
14749;DHT22;7466;53.574;9.976;2022-11-20T09:17:53;2.10;99.90
14749;DHT22;7466;53.574;9.976;2022-11-20T09:20:20;2.10;99.90
14749;DHT22;7466;53.574;9.976;2022-11-20T09:22:49;2.10;99.90
14749;DHT22;7466;53.574;9.976;2022-11-20T09:25:16;2.10;99.90
14749;DHT22;7466;53.574;9.976;2022-11-20T09:27:42;2.10;99.90
14749;DHT22;7466;53.574;9.976;2022-11-20T09:30:12;2.00;99.90
14749;DHT22;7466;53.574;9.976;2022-11-20T09:32:39;2.00;99.90
14749;DHT22;7466;53.574;9.976;2022-11-20T09:35:07;2.10;99.90
14749;DHT22;7466;53.574;9.976;2022-11-20T09:37:34;2.10;99.90
14749;DHT22;7466;53.574;9.976;2022-11-20T09:40:03;2.00;99.90
14749;DHT22;7466;53.574;9.976;2022-11-20T09:42:36;2.00;99.90
14749;DHT22;7466;53.574;9.976;2022-11-20T09:45:17;2.00;99.90
14749;DHT22;7466;53.574;9.976;2022-11-20T09:47:58;1.90;99.90
14749;DHT22;7466;53.574;9.976;2022-11-20T09:50:30;1.90;99.90
14749;DHT22;7466;53.574;9.976;2022-11-20T09:53:12;1.90;99.90
14749;DHT22;7466;53.574;9.976;2022-11-20T09:55:41;1.90;99.90
14749;DHT22;7466;53.574;9.976;2022-11-20T09:58:15;1.80;99.90
14749;DHT22;7466;53.574;9.976;2022-11-20T10:00:44;1.90;99.90
14749;DHT22;7466;53.574;9.976;2022-11-20T10:03:16;2.00;99.90
14749;DHT22;7466;53.574;9.976;2022-11-20T10:05:46;2.10;99.90
14749;DHT22;7466;53.574;9.976;2022-11-20T10:08:17;2.10;99.90
14749;DHT22;7466;53.574;9.976;2022-11-20T10:10:55;2.20;99.90
14749;DHT22;7466;53.574;9.976;2022-11-20T10:13:37;2.40;99.90
14749;DHT22;7466;53.574;9.976;2022-11-20T10:16:19;2.50;99.90
14749;DHT22;7466;53.574;9.976;2022-11-20T10:18:58;2.40;99.90
14749;DHT22;7466;53.574;9.976;2022-11-20T10:21:33;2.20;99.90
14749;DHT22;7466;53.574;9.976;2022-11-20T10:24:34;2.40;99.90
14749;DHT22;7466;53.574;9.976;2022-11-20T10:27:15;2.20;99.90
14749;DHT22;7466;53.574;9.976;2022-11-20T10:29:59;2.20;99.90
14749;DHT22;7466;53.574;9.976;2022-11-20T10:32:33;2.40;99.90
14749;DHT22;7466;53.574;9.976;2022-11-20T10:35:07;2.60;99.90
14749;DHT22;7466;53.574;9.976;2022-11-20T10:37:43;2.80;99.90
14749;DHT22;7466;53.574;9.976;2022-11-20T10:40:20;3.10;99.90
14749;DHT22;7466;53.574;9.976;2022-11-20T10:42:52;3.30;99.90
14749;DHT22;7466;53.574;9.976;2022-11-20T10:48:20;3.10;99.90
14749;DHT22;7466;53.574;9.976;2022-11-20T10:50:59;2.90;99.90
14749;DHT22;7466;53.574;9.976;2022-11-20T10:53:50;2.90;99.90
14749;DHT22;7466;53.574;9.976;2022-11-20T10:56:26;2.90;99.90
14749;DHT22;7466;53.574;9.976;2022-11-20T10:59:19;3.00;99.90
14749;DHT22;7466;53.574;9.976;2022-11-20T11:01:51;3.10;99.90
14749;DHT22;7466;53.574;9.976;2022-11-20T11:04:32;3.00;99.90
14749;DHT22;7466;53.574;9.976;2022-11-20T11:07:06;2.70;99.90
14749;DHT22;7466;53.574;9.976;2022-11-20T11:09:39;2.80;99.90
14749;DHT22;7466;53.574;9.976;2022-11-20T11:12:08;2.90;99.90
14749;DHT22;7466;53.574;9.976;2022-11-20T11:14:56;2.60;99.90
14749;DHT22;7466;53.574;9.976;2022-11-20T11:17:28;2.80;99.90
14749;DHT22;7466;53.574;9.976;2022-11-20T11:20:00;2.60;99.90
14749;DHT22;7466;53.574;9.976;2022-11-20T11:22:28;3.00;99.90
14749;DHT22;7466;53.574;9.976;2022-11-20T11:24:56;3.20;99.90
14749;DHT22;7466;53.574;9.976;2022-11-20T11:27:23;3.10;99.90
14749;DHT22;7466;53.574;9.976;2022-11-20T11:30:02;3.00;99.90
14749;DHT22;7466;53.574;9.976;2022-11-20T11:32:31;2.90;99.90
14749;DHT22;7466;53.574;9.976;2022-11-20T11:35:18;2.80;99.90
14749;DHT22;7466;53.574;9.976;2022-11-20T11:37:47;2.70;99.90
14749;DHT22;7466;53.574;9.976;2022-11-20T11:40:15;2.80;99.90
14749;DHT22;7466;53.574;9.976;2022-11-20T11:42:51;2.90;99.90
14749;DHT22;7466;53.574;9.976;2022-11-20T11:45:21;2.80;99.90
14749;DHT22;7466;53.574;9.976;2022-11-20T11:47:48;2.90;99.90
14749;DHT22;7466;53.574;9.976;2022-11-20T11:50:18;2.80;99.90
14749;DHT22;7466;53.574;9.976;2022-11-20T11:52:54;2.80;99.90
14749;DHT22;7466;53.574;9.976;2022-11-20T11:55:29;2.80;99.90
14749;DHT22;7466;53.574;9.976;2022-11-20T11:58:04;2.80;99.90
14749;DHT22;7466;53.574;9.976;2022-11-20T12:00:35;2.60;99.90
14749;DHT22;7466;53.574;9.976;2022-11-20T12:03:08;2.60;99.90
14749;DHT22;7466;53.574;9.976;2022-11-20T12:05:40;2.60;99.90
14749;DHT22;7466;53.574;9.976;2022-11-20T12:08:14;2.70;99.90
14749;DHT22;7466;53.574;9.976;2022-11-20T12:10:45;2.70;99.90
14749;DHT22;7466;53.574;9.976;2022-11-20T12:13:40;2.60;99.90
14749;DHT22;7466;53.574;9.976;2022-11-20T12:16:12;2.80;99.90
14749;DHT22;7466;53.574;9.976;2022-11-20T12:18:40;2.70;99.90
14749;DHT22;7466;53.574;9.976;2022-11-20T12:21:17;2.90;99.90
14749;DHT22;7466;53.574;9.976;2022-11-20T12:23:53;2.80;99.90
14749;DHT22;7466;53.574;9.976;2022-11-20T12:26:32;2.90;99.90
14749;DHT22;7466;53.574;9.976;2022-11-20T12:29:08;3.00;99.90
14749;DHT22;7466;53.574;9.976;2022-11-20T12:31:51;3.00;99.90
14749;DHT22;7466;53.574;9.976;2022-11-20T12:34:28;2.90;99.90
14749;DHT22;7466;53.574;9.976;2022-11-20T12:37:06;2.50;99.90
14749;DHT22;7466;53.574;9.976;2022-11-20T12:39:41;2.60;99.90
14749;DHT22;7466;53.574;9.976;2022-11-20T12:42:23;2.70;99.90
14749;DHT22;7466;53.574;9.976;2022-11-20T12:45:28;2.70;99.90
14749;DHT22;7466;53.574;9.976;2022-11-20T12:48:20;2.90;99.90
14749;DHT22;7466;53.574;9.976;2022-11-20T12:50:54;2.80;98.60
14749;DHT22;7466;53.574;9.976;2022-11-20T12:53:31;2.90;99.90
14749;DHT22;7466;53.574;9.976;2022-11-20T12:56:13;3.20;99.90
14749;DHT22;7466;53.574;9.976;2022-11-20T12:58:50;3.00;83.70
14749;DHT22;7466;53.574;9.976;2022-11-20T13:01:25;3.10;97.30
14749;DHT22;7466;53.574;9.976;2022-11-20T13:04:19;3.20;99.90
14749;DHT22;7466;53.574;9.976;2022-11-20T13:07:22;3.30;99.90
14749;DHT22;7466;53.574;9.976;2022-11-20T13:09:51;3.30;99.90
14749;DHT22;7466;53.574;9.976;2022-11-20T13:12:27;3.30;99.90
14749;DHT22;7466;53.574;9.976;2022-11-20T13:15:22;3.40;99.90
14749;DHT22;7466;53.574;9.976;2022-11-20T13:17:55;3.40;99.90
14749;DHT22;7466;53.574;9.976;2022-11-20T13:20:25;3.40;99.90
14749;DHT22;7466;53.574;9.976;2022-11-20T13:22:53;3.50;98.40
14749;DHT22;7466;53.574;9.976;2022-11-20T13:25:35;3.50;89.80
14749;DHT22;7466;53.574;9.976;2022-11-20T13:28:05;3.40;87.90
14749;DHT22;7466;53.574;9.976;2022-11-20T13:31:03;3.50;90.10
14749;DHT22;7466;53.574;9.976;2022-11-20T13:33:31;3.40;59.60
14749;DHT22;7466;53.574;9.976;2022-11-20T13:36:02;3.40;64.70
14749;DHT22;7466;53.574;9.976;2022-11-20T13:38:43;3.20;44.60
14749;DHT22;7466;53.574;9.976;2022-11-20T13:41:10;3.20;59.00
14749;DHT22;7466;53.574;9.976;2022-11-20T13:44:04;3.30;62.20
14749;DHT22;7466;53.574;9.976;2022-11-20T13:46:39;3.40;63.60
14749;DHT22;7466;53.574;9.976;2022-11-20T13:49:23;3.30;60.20
14749;DHT22;7466;53.574;9.976;2022-11-20T13:52:49;3.30;55.50
14749;DHT22;7466;53.574;9.976;2022-11-20T13:55:42;3.30;58.70
14749;DHT22;7466;53.574;9.976;2022-11-20T13:58:28;3.20;55.80
14749;DHT22;7466;53.574;9.976;2022-11-20T14:01:10;3.20;51.50
14749;DHT22;7466;53.574;9.976;2022-11-20T14:03:48;3.10;50.40
14749;DHT22;7466;53.574;9.976;2022-11-20T14:06:28;3.00;54.40
14749;DHT22;7466;53.574;9.976;2022-11-20T14:09:25;3.00;59.30
14749;DHT22;7466;53.574;9.976;2022-11-20T14:11:52;3.00;61.20
14749;DHT22;7466;53.574;9.976;2022-11-20T14:14:21;3.00;62.80
14749;DHT22;7466;53.574;9.976;2022-11-20T14:16:49;2.90;77.10
14749;DHT22;7466;53.574;9.976;2022-11-20T14:19:26;2.90;81.90
14749;DHT22;7466;53.574;9.976;2022-11-20T14:22:06;2.90;88.20
14749;DHT22;7466;53.574;9.976;2022-11-20T14:24:34;2.90;92.30
14749;DHT22;7466;53.574;9.976;2022-11-20T14:27:03;3.00;94.20
14749;DHT22;7466;53.574;9.976;2022-11-20T14:29:35;2.90;95.50
14749;DHT22;7466;53.574;9.976;2022-11-20T14:32:03;3.00;96.00
14749;DHT22;7466;53.574;9.976;2022-11-20T14:34:32;3.00;96.60
14749;DHT22;7466;53.574;9.976;2022-11-20T14:37:01;3.00;95.70
14749;DHT22;7466;53.574;9.976;2022-11-20T14:39:32;2.90;93.50
14749;DHT22;7466;53.574;9.976;2022-11-20T14:42:01;2.80;97.20
14749;DHT22;7466;53.574;9.976;2022-11-20T14:44:31;2.80;93.30
14749;DHT22;7466;53.574;9.976;2022-11-20T14:47:00;2.70;96.00
14749;DHT22;7466;53.574;9.976;2022-11-20T14:49:30;2.60;99.90
14749;DHT22;7466;53.574;9.976;2022-11-20T14:51:59;2.60;99.90
14749;DHT22;7466;53.574;9.976;2022-11-20T14:54:26;2.60;99.90
14749;DHT22;7466;53.574;9.976;2022-11-20T14:56:55;2.50;99.90
14749;DHT22;7466;53.574;9.976;2022-11-20T14:59:28;2.40;99.90
14749;DHT22;7466;53.574;9.976;2022-11-20T15:01:55;2.40;99.90
14749;DHT22;7466;53.574;9.976;2022-11-20T15:04:44;2.30;99.90
14749;DHT22;7466;53.574;9.976;2022-11-20T15:07:22;2.30;99.90
14749;DHT22;7466;53.574;9.976;2022-11-20T15:10:06;2.20;99.90
14749;DHT22;7466;53.574;9.976;2022-11-20T15:12:38;2.20;99.90
14749;DHT22;7466;53.574;9.976;2022-11-20T15:15:10;2.10;99.90
14749;DHT22;7466;53.574;9.976;2022-11-20T15:17:40;2.00;99.90
14749;DHT22;7466;53.574;9.976;2022-11-20T15:20:13;2.00;99.90
14749;DHT22;7466;53.574;9.976;2022-11-20T15:22:41;2.00;99.90
14749;DHT22;7466;53.574;9.976;2022-11-20T15:25:12;2.00;99.90
14749;DHT22;7466;53.574;9.976;2022-11-20T15:27:40;2.00;99.90
14749;DHT22;7466;53.574;9.976;2022-11-20T15:30:22;1.90;99.90
14749;DHT22;7466;53.574;9.976;2022-11-20T15:32:52;1.90;99.90
14749;DHT22;7466;53.574;9.976;2022-11-20T15:35:18;2.00;99.90
14749;DHT22;7466;53.574;9.976;2022-11-20T15:37:45;2.00;99.90
14749;DHT22;7466;53.574;9.976;2022-11-20T15:40:12;2.00;99.90
14749;DHT22;7466;53.574;9.976;2022-11-20T15:42:39;2.00;99.90
14749;DHT22;7466;53.574;9.976;2022-11-20T15:45:30;2.00;99.90
14749;DHT22;7466;53.574;9.976;2022-11-20T15:47:57;2.00;99.90
14749;DHT22;7466;53.574;9.976;2022-11-20T15:50:34;2.00;99.90
14749;DHT22;7466;53.574;9.976;2022-11-20T15:53:02;2.00;99.90
14749;DHT22;7466;53.574;9.976;2022-11-20T15:55:31;2.00;99.90
14749;DHT22;7466;53.574;9.976;2022-11-20T15:57:58;2.00;99.90
14749;DHT22;7466;53.574;9.976;2022-11-20T16:00:25;2.10;99.90
14749;DHT22;7466;53.574;9.976;2022-11-20T16:02:54;2.10;99.90
14749;DHT22;7466;53.574;9.976;2022-11-20T16:05:23;2.10;99.90
14749;DHT22;7466;53.574;9.976;2022-11-20T16:07:51;2.10;99.90
14749;DHT22;7466;53.574;9.976;2022-11-20T16:10:18;2.10;99.90
14749;DHT22;7466;53.574;9.976;2022-11-20T16:12:45;2.10;99.90
14749;DHT22;7466;53.574;9.976;2022-11-20T16:15:29;2.20;99.90
14749;DHT22;7466;53.574;9.976;2022-11-20T16:18:15;2.10;99.90
14749;DHT22;7466;53.574;9.976;2022-11-20T16:20:46;2.20;99.90
14749;DHT22;7466;53.574;9.976;2022-11-20T16:23:13;2.10;99.90
14749;DHT22;7466;53.574;9.976;2022-11-20T16:25:41;2.10;99.90
14749;DHT22;7466;53.574;9.976;2022-11-20T16:28:16;2.20;99.90
14749;DHT22;7466;53.574;9.976;2022-11-20T16:30:43;2.20;99.90
14749;DHT22;7466;53.574;9.976;2022-11-20T16:33:11;2.20;99.90
14749;DHT22;7466;53.574;9.976;2022-11-20T16:35:47;2.10;99.90
14749;DHT22;7466;53.574;9.976;2022-11-20T16:38:13;2.20;99.90
14749;DHT22;7466;53.574;9.976;2022-11-20T16:40:40;2.20;99.90